Terminal Aerodrome Forecast
Issued by NWS

Home | Current Version | Previous Version | Text Only | Print | Product List | Glossary On
Versions: 1 2 3 4 5 6 7 8 9 10 11 12
000
FTUS41 KLWX 211100
TAFMTN
TAF
KMTN 211139Z 2112/2212 00000KT 5SM BR BKN100
     FM211300 VRB03KT P6SM BKN100
     FM211800 26005KT 6SM -SHRA BKN060
     FM212100 29005KT 5SM -SHRA BKN040
     FM220400 36005KT 6SM -SHRA OVC030=

USA.gov is the U.S. government's official web portal to all federal, state and local government web resources and services.